sensor_id;sensor_type;location;lat;lon;timestamp;P1;durP1;ratioP1;P2;durP2;ratioP2
40611;SDS011;26317;44.894;20.286;2023-05-07T00:01:43;8.83;;;6.57;;
40611;SDS011;26317;44.894;20.286;2023-05-07T00:04:15;9.15;;;5.95;;
40611;SDS011;26317;44.894;20.286;2023-05-07T00:06:49;7.30;;;5.35;;
40611;SDS011;26317;44.894;20.286;2023-05-07T00:09:19;7.72;;;5.63;;
40611;SDS011;26317;44.894;20.286;2023-05-07T00:11:49;9.95;;;6.10;;
40611;SDS011;26317;44.894;20.286;2023-05-07T00:14:22;8.45;;;6.22;;
40611;SDS011;26317;44.894;20.286;2023-05-07T00:16:53;8.57;;;6.25;;
40611;SDS011;26317;44.894;20.286;2023-05-07T00:19:26;10.00;;;5.47;;
40611;SDS011;26317;44.894;20.286;2023-05-07T00:21:57;7.03;;;5.85;;
40611;SDS011;26317;44.894;20.286;2023-05-07T00:24:27;7.40;;;5.43;;
40611;SDS011;26317;44.894;20.286;2023-05-07T00:26:58;7.28;;;5.68;;
40611;SDS011;26317;44.894;20.286;2023-05-07T00:29:28;7.37;;;5.57;;
40611;SDS011;26317;44.894;20.286;2023-05-07T00:31:58;6.63;;;5.63;;
40611;SDS011;26317;44.894;20.286;2023-05-07T00:34:31;8.02;;;5.97;;
40611;SDS011;26317;44.894;20.286;2023-05-07T00:37:04;9.55;;;5.15;;
40611;SDS011;26317;44.894;20.286;2023-05-07T00:39:35;8.55;;;5.97;;
40611;SDS011;26317;44.894;20.286;2023-05-07T00:42:05;8.15;;;6.00;;
40611;SDS011;26317;44.894;20.286;2023-05-07T00:44:36;6.53;;;5.50;;
40611;SDS011;26317;44.894;20.286;2023-05-07T00:47:06;7.35;;;5.75;;
40611;SDS011;26317;44.894;20.286;2023-05-07T00:49:41;8.88;;;5.68;;
40611;SDS011;26317;44.894;20.286;2023-05-07T00:52:13;6.57;;;5.38;;
40611;SDS011;26317;44.894;20.286;2023-05-07T00:54:45;7.25;;;5.63;;
40611;SDS011;26317;44.894;20.286;2023-05-07T00:57:16;9.93;;;6.18;;
40611;SDS011;26317;44.894;20.286;2023-05-07T00:59:46;8.98;;;5.63;;
40611;SDS011;26317;44.894;20.286;2023-05-07T01:02:17;11.55;;;5.65;;
40611;SDS011;26317;44.894;20.286;2023-05-07T01:04:54;7.78;;;6.05;;
40611;SDS011;26317;44.894;20.286;2023-05-07T01:07:25;8.50;;;6.10;;
40611;SDS011;26317;44.894;20.286;2023-05-07T01:09:57;11.45;;;6.90;;
40611;SDS011;26317;44.894;20.286;2023-05-07T01:12:28;10.07;;;7.75;;
40611;SDS011;26317;44.894;20.286;2023-05-07T01:15:00;11.38;;;7.63;;
40611;SDS011;26317;44.894;20.286;2023-05-07T01:17:32;9.52;;;7.13;;
40611;SDS011;26317;44.894;20.286;2023-05-07T01:20:08;12.77;;;8.07;;
40611;SDS011;26317;44.894;20.286;2023-05-07T01:22:49;8.43;;;7.07;;
40611;SDS011;26317;44.894;20.286;2023-05-07T01:25:19;13.32;;;8.05;;
40611;SDS011;26317;44.894;20.286;2023-05-07T01:27:53;10.25;;;7.45;;
40611;SDS011;26317;44.894;20.286;2023-05-07T01:30:28;12.50;;;7.85;;
40611;SDS011;26317;44.894;20.286;2023-05-07T01:33:03;11.10;;;7.35;;
40611;SDS011;26317;44.894;20.286;2023-05-07T01:35:38;9.73;;;7.72;;
40611;SDS011;26317;44.894;20.286;2023-05-07T01:38:14;8.60;;;7.35;;
40611;SDS011;26317;44.894;20.286;2023-05-07T01:40:44;8.77;;;6.72;;
40611;SDS011;26317;44.894;20.286;2023-05-07T01:43:15;7.80;;;6.88;;
40611;SDS011;26317;44.894;20.286;2023-05-07T01:45:45;8.88;;;7.28;;
40611;SDS011;26317;44.894;20.286;2023-05-07T01:48:16;9.55;;;7.35;;
40611;SDS011;26317;44.894;20.286;2023-05-07T01:50:48;10.73;;;6.90;;
40611;SDS011;26317;44.894;20.286;2023-05-07T01:53:21;7.70;;;6.05;;
40611;SDS011;26317;44.894;20.286;2023-05-07T01:55:51;9.23;;;6.53;;
40611;SDS011;26317;44.894;20.286;2023-05-07T01:58:23;9.95;;;6.93;;
40611;SDS011;26317;44.894;20.286;2023-05-07T02:00:53;12.98;;;7.43;;
40611;SDS011;26317;44.894;20.286;2023-05-07T02:03:24;10.60;;;6.47;;
40611;SDS011;26317;44.894;20.286;2023-05-07T02:06:04;9.57;;;7.38;;
40611;SDS011;26317;44.894;20.286;2023-05-07T02:08:40;8.48;;;6.40;;
40611;SDS011;26317;44.894;20.286;2023-05-07T02:11:11;8.75;;;6.60;;
40611;SDS011;26317;44.894;20.286;2023-05-07T02:13:43;11.02;;;6.55;;
40611;SDS011;26317;44.894;20.286;2023-05-07T02:16:13;15.10;;;6.68;;
40611;SDS011;26317;44.894;20.286;2023-05-07T02:18:44;10.50;;;7.72;;
40611;SDS011;26317;44.894;20.286;2023-05-07T02:21:15;12.73;;;7.80;;
40611;SDS011;26317;44.894;20.286;2023-05-07T02:23:48;11.43;;;8.15;;
40611;SDS011;26317;44.894;20.286;2023-05-07T02:26:21;13.00;;;9.23;;
40611;SDS011;26317;44.894;20.286;2023-05-07T02:28:52;14.68;;;9.32;;
40611;SDS011;26317;44.894;20.286;2023-05-07T02:31:23;20.27;;;9.73;;
40611;SDS011;26317;44.894;20.286;2023-05-07T02:33:55;15.82;;;8.70;;
40611;SDS011;26317;44.894;20.286;2023-05-07T02:36:25;10.43;;;8.27;;
40611;SDS011;26317;44.894;20.286;2023-05-07T02:39:05;13.18;;;8.05;;
40611;SDS011;26317;44.894;20.286;2023-05-07T02:41:35;13.70;;;8.75;;
40611;SDS011;26317;44.894;20.286;2023-05-07T02:44:05;13.13;;;7.93;;
40611;SDS011;26317;44.894;20.286;2023-05-07T02:46:36;9.02;;;8.13;;
40611;SDS011;26317;44.894;20.286;2023-05-07T02:49:10;13.18;;;8.55;;
40611;SDS011;26317;44.894;20.286;2023-05-07T02:51:41;9.43;;;7.65;;
40611;SDS011;26317;44.894;20.286;2023-05-07T02:54:21;10.60;;;7.53;;
40611;SDS011;26317;44.894;20.286;2023-05-07T02:56:51;13.02;;;7.53;;
40611;SDS011;26317;44.894;20.286;2023-05-07T02:59:22;7.05;;;6.43;;
40611;SDS011;26317;44.894;20.286;2023-05-07T03:01:53;11.15;;;6.85;;
40611;SDS011;26317;44.894;20.286;2023-05-07T03:04:23;10.18;;;7.35;;
40611;SDS011;26317;44.894;20.286;2023-05-07T03:06:54;10.80;;;7.47;;
40611;SDS011;26317;44.894;20.286;2023-05-07T03:09:26;10.40;;;7.03;;
40611;SDS011;26317;44.894;20.286;2023-05-07T03:11:57;8.70;;;6.88;;
40611;SDS011;26317;44.894;20.286;2023-05-07T03:14:28;12.80;;;8.43;;
40611;SDS011;26317;44.894;20.286;2023-05-07T03:16:59;9.20;;;6.93;;
40611;SDS011;26317;44.894;20.286;2023-05-07T03:19:29;8.85;;;6.82;;
40611;SDS011;26317;44.894;20.286;2023-05-07T03:22:00;10.85;;;8.57;;
40611;SDS011;26317;44.894;20.286;2023-05-07T03:24:33;11.80;;;8.27;;
40611;SDS011;26317;44.894;20.286;2023-05-07T03:27:04;9.65;;;7.20;;
40611;SDS011;26317;44.894;20.286;2023-05-07T03:29:35;8.52;;;6.85;;
40611;SDS011;26317;44.894;20.286;2023-05-07T03:32:07;11.20;;;6.82;;
40611;SDS011;26317;44.894;20.286;2023-05-07T03:34:38;8.77;;;6.35;;
40611;SDS011;26317;44.894;20.286;2023-05-07T03:37:11;9.05;;;6.15;;
40611;SDS011;26317;44.894;20.286;2023-05-07T03:42:15;9.15;;;7.20;;
40611;SDS011;26317;44.894;20.286;2023-05-07T03:44:48;7.53;;;6.68;;
40611;SDS011;26317;44.894;20.286;2023-05-07T03:47:19;11.20;;;6.55;;
40611;SDS011;26317;44.894;20.286;2023-05-07T03:49:49;9.25;;;6.78;;
40611;SDS011;26317;44.894;20.286;2023-05-07T03:52:22;11.80;;;6.45;;
40611;SDS011;26317;44.894;20.286;2023-05-07T03:54:59;6.63;;;6.03;;
40611;SDS011;26317;44.894;20.286;2023-05-07T03:57:31;6.05;;;5.30;;
40611;SDS011;26317;44.894;20.286;2023-05-07T04:00:03;7.80;;;6.47;;
40611;SDS011;26317;44.894;20.286;2023-05-07T04:02:46;7.10;;;6.40;;
40611;SDS011;26317;44.894;20.286;2023-05-07T04:05:24;8.45;;;6.20;;
40611;SDS011;26317;44.894;20.286;2023-05-07T04:07:59;10.88;;;6.97;;
40611;SDS011;26317;44.894;20.286;2023-05-07T04:10:39;8.95;;;6.72;;
40611;SDS011;26317;44.894;20.286;2023-05-07T04:13:10;8.45;;;6.05;;
40611;SDS011;26317;44.894;20.286;2023-05-07T04:18:17;10.23;;;6.82;;
40611;SDS011;26317;44.894;20.286;2023-05-07T04:23:18;9.98;;;7.63;;
40611;SDS011;26317;44.894;20.286;2023-05-07T04:25:52;7.80;;;6.90;;
40611;SDS011;26317;44.894;20.286;2023-05-07T04:28:37;10.88;;;7.57;;
40611;SDS011;26317;44.894;20.286;2023-05-07T04:31:09;8.57;;;6.78;;
40611;SDS011;26317;44.894;20.286;2023-05-07T04:33:40;10.27;;;6.55;;
40611;SDS011;26317;44.894;20.286;2023-05-07T04:36:13;11.88;;;6.47;;
40611;SDS011;26317;44.894;20.286;2023-05-07T04:38:49;9.18;;;6.55;;
40611;SDS011;26317;44.894;20.286;2023-05-07T04:41:26;12.52;;;6.95;;
40611;SDS011;26317;44.894;20.286;2023-05-07T04:44:00;7.30;;;6.10;;
40611;SDS011;26317;44.894;20.286;2023-05-07T04:46:32;8.85;;;6.60;;
40611;SDS011;26317;44.894;20.286;2023-05-07T04:49:02;10.88;;;6.72;;
40611;SDS011;26317;44.894;20.286;2023-05-07T04:51:35;11.65;;;6.40;;
40611;SDS011;26317;44.894;20.286;2023-05-07T04:54:06;17.42;;;6.47;;
40611;SDS011;26317;44.894;20.286;2023-05-07T04:56:39;10.95;;;5.90;;
40611;SDS011;26317;44.894;20.286;2023-05-07T04:59:09;7.68;;;6.00;;
40611;SDS011;26317;44.894;20.286;2023-05-07T05:01:39;8.48;;;6.13;;
40611;SDS011;26317;44.894;20.286;2023-05-07T05:04:10;9.65;;;6.28;;
40611;SDS011;26317;44.894;20.286;2023-05-07T05:06:42;8.02;;;5.43;;
40611;SDS011;26317;44.894;20.286;2023-05-07T05:09:13;13.02;;;7.15;;
40611;SDS011;26317;44.894;20.286;2023-05-07T05:11:47;9.88;;;5.93;;
40611;SDS011;26317;44.894;20.286;2023-05-07T05:14:19;12.90;;;6.28;;
40611;SDS011;26317;44.894;20.286;2023-05-07T05:16:51;10.25;;;6.13;;
40611;SDS011;26317;44.894;20.286;2023-05-07T05:19:22;8.13;;;6.60;;
40611;SDS011;26317;44.894;20.286;2023-05-07T05:21:52;11.20;;;7.68;;
40611;SDS011;26317;44.894;20.286;2023-05-07T05:24:23;7.80;;;6.57;;
40611;SDS011;26317;44.894;20.286;2023-05-07T05:26:55;9.88;;;6.45;;
40611;SDS011;26317;44.894;20.286;2023-05-07T05:29:28;13.18;;;7.22;;
40611;SDS011;26317;44.894;20.286;2023-05-07T05:31:58;12.60;;;7.05;;
40611;SDS011;26317;44.894;20.286;2023-05-07T05:34:30;7.13;;;6.38;;
40611;SDS011;26317;44.894;20.286;2023-05-07T05:37:00;8.23;;;6.90;;
40611;SDS011;26317;44.894;20.286;2023-05-07T05:39:30;12.23;;;6.43;;
40611;SDS011;26317;44.894;20.286;2023-05-07T05:42:03;8.50;;;6.78;;
40611;SDS011;26317;44.894;20.286;2023-05-07T05:44:35;8.55;;;6.30;;
40611;SDS011;26317;44.894;20.286;2023-05-07T05:47:08;7.07;;;6.32;;
40611;SDS011;26317;44.894;20.286;2023-05-07T05:49:39;7.88;;;6.65;;
40611;SDS011;26317;44.894;20.286;2023-05-07T05:52:14;9.07;;;6.63;;
40611;SDS011;26317;44.894;20.286;2023-05-07T05:54:45;7.75;;;6.47;;
40611;SDS011;26317;44.894;20.286;2023-05-07T05:57:19;10.60;;;6.55;;
40611;SDS011;26317;44.894;20.286;2023-05-07T05:59:52;13.40;;;7.55;;
40611;SDS011;26317;44.894;20.286;2023-05-07T06:02:24;9.80;;;6.40;;
40611;SDS011;26317;44.894;20.286;2023-05-07T06:04:55;11.77;;;5.80;;
40611;SDS011;26317;44.894;20.286;2023-05-07T06:09:59;9.98;;;6.05;;
40611;SDS011;26317;44.894;20.286;2023-05-07T06:12:34;6.07;;;5.43;;
40611;SDS011;26317;44.894;20.286;2023-05-07T06:15:05;6.60;;;5.55;;
40611;SDS011;26317;44.894;20.286;2023-05-07T06:17:37;6.93;;;4.25;;
40611;SDS011;26317;44.894;20.286;2023-05-07T06:20:12;6.72;;;4.60;;
40611;SDS011;26317;44.894;20.286;2023-05-07T06:22:43;7.43;;;4.72;;
40611;SDS011;26317;44.894;20.286;2023-05-07T06:25:15;5.72;;;4.88;;
40611;SDS011;26317;44.894;20.286;2023-05-07T06:27:48;7.28;;;4.30;;
40611;SDS011;26317;44.894;20.286;2023-05-07T06:30:18;5.22;;;3.88;;
40611;SDS011;26317;44.894;20.286;2023-05-07T06:32:49;6.00;;;4.00;;
40611;SDS011;26317;44.894;20.286;2023-05-07T06:35:20;8.68;;;3.95;;
40611;SDS011;26317;44.894;20.286;2023-05-07T06:37:50;7.18;;;3.92;;
40611;SDS011;26317;44.894;20.286;2023-05-07T06:40:24;6.43;;;3.75;;
40611;SDS011;26317;44.894;20.286;2023-05-07T06:42:58;4.97;;;4.18;;
40611;SDS011;26317;44.894;20.286;2023-05-07T06:45:46;6.82;;;3.45;;
40611;SDS011;26317;44.894;20.286;2023-05-07T06:48:19;7.05;;;3.47;;
40611;SDS011;26317;44.894;20.286;2023-05-07T06:51:00;6.18;;;3.22;;
40611;SDS011;26317;44.894;20.286;2023-05-07T06:53:31;5.85;;;3.00;;
40611;SDS011;26317;44.894;20.286;2023-05-07T06:56:04;5.43;;;3.20;;
40611;SDS011;26317;44.894;20.286;2023-05-07T06:58:39;5.78;;;3.38;;
40611;SDS011;26317;44.894;20.286;2023-05-07T07:01:10;4.95;;;2.83;;
40611;SDS011;26317;44.894;20.286;2023-05-07T07:03:42;4.72;;;3.10;;
40611;SDS011;26317;44.894;20.286;2023-05-07T07:06:12;5.10;;;3.25;;
40611;SDS011;26317;44.894;20.286;2023-05-07T07:08:43;5.50;;;3.13;;
40611;SDS011;26317;44.894;20.286;2023-05-07T07:11:16;4.43;;;3.20;;
40611;SDS011;26317;44.894;20.286;2023-05-07T07:13:50;7.38;;;3.60;;
40611;SDS011;26317;44.894;20.286;2023-05-07T07:16:21;5.78;;;3.22;;
40611;SDS011;26317;44.894;20.286;2023-05-07T07:18:52;3.83;;;2.97;;
40611;SDS011;26317;44.894;20.286;2023-05-07T07:21:24;4.28;;;3.15;;
40611;SDS011;26317;44.894;20.286;2023-05-07T07:23:54;3.60;;;3.17;;
40611;SDS011;26317;44.894;20.286;2023-05-07T07:28:58;6.15;;;3.13;;
40611;SDS011;26317;44.894;20.286;2023-05-07T07:31:28;3.90;;;3.38;;
40611;SDS011;26317;44.894;20.286;2023-05-07T07:33:59;3.72;;;3.33;;
40611;SDS011;26317;44.894;20.286;2023-05-07T07:36:31;4.35;;;3.05;;
40611;SDS011;26317;44.894;20.286;2023-05-07T07:39:16;4.22;;;2.95;;
40611;SDS011;26317;44.894;20.286;2023-05-07T07:41:49;5.22;;;2.88;;
40611;SDS011;26317;44.894;20.286;2023-05-07T07:44:24;3.75;;;3.22;;
40611;SDS011;26317;44.894;20.286;2023-05-07T07:47:05;3.33;;;3.03;;
40611;SDS011;26317;44.894;20.286;2023-05-07T07:49:37;7.10;;;3.58;;
40611;SDS011;26317;44.894;20.286;2023-05-07T07:52:09;7.47;;;3.75;;
40611;SDS011;26317;44.894;20.286;2023-05-07T07:54:41;4.70;;;2.70;;
40611;SDS011;26317;44.894;20.286;2023-05-07T07:57:12;4.60;;;3.17;;
40611;SDS011;26317;44.894;20.286;2023-05-07T07:59:46;4.50;;;3.15;;
40611;SDS011;26317;44.894;20.286;2023-05-07T08:02:17;6.15;;;2.97;;
40611;SDS011;26317;44.894;20.286;2023-05-07T08:04:49;7.65;;;3.50;;
40611;SDS011;26317;44.894;20.286;2023-05-07T08:07:20;5.30;;;3.45;;
40611;SDS011;26317;44.894;20.286;2023-05-07T08:09:50;8.30;;;3.28;;
40611;SDS011;26317;44.894;20.286;2023-05-07T08:12:24;4.85;;;3.20;;
40611;SDS011;26317;44.894;20.286;2023-05-07T08:14:57;8.95;;;3.55;;
40611;SDS011;26317;44.894;20.286;2023-05-07T08:17:28;3.58;;;3.28;;
40611;SDS011;26317;44.894;20.286;2023-05-07T08:22:29;6.22;;;3.65;;
40611;SDS011;26317;44.894;20.286;2023-05-07T08:25:02;7.15;;;3.17;;
40611;SDS011;26317;44.894;20.286;2023-05-07T08:27:33;7.13;;;3.10;;
40611;SDS011;26317;44.894;20.286;2023-05-07T08:30:08;7.63;;;3.60;;
40611;SDS011;26317;44.894;20.286;2023-05-07T08:32:40;5.50;;;3.45;;
40611;SDS011;26317;44.894;20.286;2023-05-07T08:35:10;3.67;;;3.25;;
40611;SDS011;26317;44.894;20.286;2023-05-07T08:37:43;5.03;;;3.53;;
40611;SDS011;26317;44.894;20.286;2023-05-07T08:40:16;4.45;;;2.85;;
40611;SDS011;26317;44.894;20.286;2023-05-07T08:42:48;6.13;;;3.20;;
40611;SDS011;26317;44.894;20.286;2023-05-07T08:45:27;3.72;;;2.88;;
40611;SDS011;26317;44.894;20.286;2023-05-07T08:48:04;5.18;;;3.13;;
40611;SDS011;26317;44.894;20.286;2023-05-07T08:50:38;5.75;;;3.20;;
40611;SDS011;26317;44.894;20.286;2023-05-07T08:53:10;4.85;;;3.60;;
40611;SDS011;26317;44.894;20.286;2023-05-07T08:55:41;4.20;;;3.05;;
40611;SDS011;26317;44.894;20.286;2023-05-07T08:58:13;3.78;;;3.15;;
40611;SDS011;26317;44.894;20.286;2023-05-07T09:00:46;4.47;;;3.40;;
40611;SDS011;26317;44.894;20.286;2023-05-07T09:03:17;5.22;;;3.90;;
40611;SDS011;26317;44.894;20.286;2023-05-07T09:05:52;5.25;;;2.85;;
40611;SDS011;26317;44.894;20.286;2023-05-07T09:08:24;5.32;;;3.20;;
40611;SDS011;26317;44.894;20.286;2023-05-07T09:10:59;6.40;;;3.60;;
40611;SDS011;26317;44.894;20.286;2023-05-07T09:13:31;8.65;;;3.67;;
40611;SDS011;26317;44.894;20.286;2023-05-07T09:16:14;4.20;;;3.05;;
40611;SDS011;26317;44.894;20.286;2023-05-07T09:18:46;3.10;;;2.80;;
40611;SDS011;26317;44.894;20.286;2023-05-07T09:21:17;9.23;;;3.55;;
40611;SDS011;26317;44.894;20.286;2023-05-07T09:23:50;4.70;;;3.33;;
40611;SDS011;26317;44.894;20.286;2023-05-07T09:26:24;4.60;;;3.00;;
40611;SDS011;26317;44.894;20.286;2023-05-07T09:28:55;5.75;;;3.22;;
40611;SDS011;26317;44.894;20.286;2023-05-07T09:31:31;5.78;;;3.28;;
40611;SDS011;26317;44.894;20.286;2023-05-07T09:34:01;3.08;;;2.72;;
40611;SDS011;26317;44.894;20.286;2023-05-07T09:36:37;4.55;;;3.70;;
40611;SDS011;26317;44.894;20.286;2023-05-07T09:39:07;5.20;;;3.53;;
40611;SDS011;26317;44.894;20.286;2023-05-07T09:41:45;5.03;;;3.38;;
40611;SDS011;26317;44.894;20.286;2023-05-07T09:44:24;3.50;;;2.65;;
40611;SDS011;26317;44.894;20.286;2023-05-07T09:49:38;5.93;;;3.42;;
40611;SDS011;26317;44.894;20.286;2023-05-07T09:52:11;7.93;;;3.35;;
40611;SDS011;26317;44.894;20.286;2023-05-07T09:54:48;4.40;;;3.70;;
40611;SDS011;26317;44.894;20.286;2023-05-07T09:57:22;5.13;;;3.55;;
40611;SDS011;26317;44.894;20.286;2023-05-07T10:00:02;6.25;;;2.72;;
40611;SDS011;26317;44.894;20.286;2023-05-07T10:02:50;6.35;;;3.28;;
40611;SDS011;26317;44.894;20.286;2023-05-07T10:05:32;6.20;;;3.25;;
40611;SDS011;26317;44.894;20.286;2023-05-07T10:08:03;7.75;;;3.45;;
40611;SDS011;26317;44.894;20.286;2023-05-07T10:10:39;12.45;;;4.10;;
40611;SDS011;26317;44.894;20.286;2023-05-07T10:13:15;8.40;;;3.13;;
40611;SDS011;26317;44.894;20.286;2023-05-07T10:15:52;8.48;;;4.03;;
40611;SDS011;26317;44.894;20.286;2023-05-07T10:18:31;4.22;;;3.25;;
40611;SDS011;26317;44.894;20.286;2023-05-07T10:21:11;4.97;;;3.42;;
40611;SDS011;26317;44.894;20.286;2023-05-07T10:23:49;6.07;;;3.88;;
40611;SDS011;26317;44.894;20.286;2023-05-07T10:26:20;11.63;;;3.70;;
40611;SDS011;26317;44.894;20.286;2023-05-07T10:28:54;5.93;;;3.40;;
40611;SDS011;26317;44.894;20.286;2023-05-07T10:31:39;3.78;;;3.40;;
40611;SDS011;26317;44.894;20.286;2023-05-07T10:34:29;4.55;;;3.40;;
40611;SDS011;26317;44.894;20.286;2023-05-07T10:37:06;7.28;;;3.92;;
40611;SDS011;26317;44.894;20.286;2023-05-07T10:39:38;4.22;;;3.15;;
40611;SDS011;26317;44.894;20.286;2023-05-07T10:42:10;14.60;;;3.45;;
40611;SDS011;26317;44.894;20.286;2023-05-07T10:44:48;3.55;;;3.10;;
40611;SDS011;26317;44.894;20.286;2023-05-07T10:47:26;3.45;;;3.15;;
40611;SDS011;26317;44.894;20.286;2023-05-07T11:02:21;6.70;;;3.58;;
40611;SDS011;26317;44.894;20.286;2023-05-07T11:08:25;4.03;;;3.20;;
40611;SDS011;26317;44.894;20.286;2023-05-07T11:13:48;4.63;;;3.85;;
40611;SDS011;26317;44.894;20.286;2023-05-07T11:16:26;9.65;;;4.72;;
40611;SDS011;26317;44.894;20.286;2023-05-07T11:19:18;5.20;;;3.50;;
40611;SDS011;26317;44.894;20.286;2023-05-07T11:22:39;8.27;;;5.05;;
40611;SDS011;26317;44.894;20.286;2023-05-07T11:25:33;6.18;;;3.50;;
40611;SDS011;26317;44.894;20.286;2023-05-07T11:28:24;7.65;;;3.33;;
40611;SDS011;26317;44.894;20.286;2023-05-07T11:31:02;6.72;;;3.10;;
40611;SDS011;26317;44.894;20.286;2023-05-07T11:33:34;8.00;;;3.05;;
40611;SDS011;26317;44.894;20.286;2023-05-07T11:36:09;5.32;;;3.25;;
40611;SDS011;26317;44.894;20.286;2023-05-07T11:38:46;4.65;;;3.08;;
40611;SDS011;26317;44.894;20.286;2023-05-07T11:41:19;5.10;;;3.42;;
40611;SDS011;26317;44.894;20.286;2023-05-07T11:43:56;4.03;;;3.15;;
40611;SDS011;26317;44.894;20.286;2023-05-07T11:46:27;6.85;;;2.95;;
40611;SDS011;26317;44.894;20.286;2023-05-07T11:48:58;3.97;;;2.80;;
40611;SDS011;26317;44.894;20.286;2023-05-07T11:51:31;4.18;;;3.00;;
40611;SDS011;26317;44.894;20.286;2023-05-07T11:54:03;6.97;;;3.45;;
40611;SDS011;26317;44.894;20.286;2023-05-07T11:56:43;4.15;;;2.70;;
40611;SDS011;26317;44.894;20.286;2023-05-07T11:59:17;3.88;;;2.70;;
40611;SDS011;26317;44.894;20.286;2023-05-07T12:01:52;3.10;;;2.58;;
40611;SDS011;26317;44.894;20.286;2023-05-07T12:04:29;5.20;;;2.78;;
40611;SDS011;26317;44.894;20.286;2023-05-07T12:07:02;3.75;;;2.63;;
40611;SDS011;26317;44.894;20.286;2023-05-07T12:09:32;4.20;;;2.13;;
40611;SDS011;26317;44.894;20.286;2023-05-07T12:14:37;3.50;;;2.40;;
40611;SDS011;26317;44.894;20.286;2023-05-07T12:17:09;3.33;;;1.85;;
40611;SDS011;26317;44.894;20.286;2023-05-07T12:19:40;3.97;;;3.05;;
40611;SDS011;26317;44.894;20.286;2023-05-07T12:22:12;3.70;;;2.92;;
40611;SDS011;26317;44.894;20.286;2023-05-07T12:24:43;7.10;;;2.30;;
40611;SDS011;26317;44.894;20.286;2023-05-07T12:27:20;2.45;;;2.17;;
40611;SDS011;26317;44.894;20.286;2023-05-07T12:29:50;3.78;;;1.88;;
40611;SDS011;26317;44.894;20.286;2023-05-07T12:32:21;4.18;;;2.47;;
40611;SDS011;26317;44.894;20.286;2023-05-07T12:34:52;5.22;;;3.75;;
40611;SDS011;26317;44.894;20.286;2023-05-07T12:37:24;4.07;;;2.55;;
40611;SDS011;26317;44.894;20.286;2023-05-07T12:40:04;4.28;;;2.83;;
40611;SDS011;26317;44.894;20.286;2023-05-07T12:42:39;4.78;;;2.13;;
40611;SDS011;26317;44.894;20.286;2023-05-07T12:45:15;8.02;;;3.00;;
40611;SDS011;26317;44.894;20.286;2023-05-07T12:47:46;3.45;;;1.90;;
40611;SDS011;26317;44.894;20.286;2023-05-07T12:50:17;7.55;;;2.30;;
40611;SDS011;26317;44.894;20.286;2023-05-07T12:52:49;6.85;;;3.17;;
40611;SDS011;26317;44.894;20.286;2023-05-07T12:55:20;4.72;;;2.42;;
40611;SDS011;26317;44.894;20.286;2023-05-07T13:00:33;2.47;;;2.10;;
40611;SDS011;26317;44.894;20.286;2023-05-07T13:03:05;3.45;;;2.53;;
40611;SDS011;26317;44.894;20.286;2023-05-07T13:05:38;6.00;;;2.55;;
40611;SDS011;26317;44.894;20.286;2023-05-07T13:08:09;2.97;;;2.60;;
40611;SDS011;26317;44.894;20.286;2023-05-07T13:14:12;3.55;;;2.25;;
40611;SDS011;26317;44.894;20.286;2023-05-07T13:16:42;6.65;;;2.40;;
40611;SDS011;26317;44.894;20.286;2023-05-07T13:19:13;4.50;;;2.35;;
40611;SDS011;26317;44.894;20.286;2023-05-07T13:21:45;4.55;;;2.03;;
40611;SDS011;26317;44.894;20.286;2023-05-07T13:24:16;3.53;;;2.50;;
40611;SDS011;26317;44.894;20.286;2023-05-07T13:26:47;6.15;;;2.40;;
40611;SDS011;26317;44.894;20.286;2023-05-07T13:29:20;2.50;;;2.15;;
40611;SDS011;26317;44.894;20.286;2023-05-07T13:31:55;3.40;;;2.70;;
40611;SDS011;26317;44.894;20.286;2023-05-07T13:34:28;3.70;;;2.72;;
40611;SDS011;26317;44.894;20.286;2023-05-07T13:36:58;5.35;;;2.20;;
40611;SDS011;26317;44.894;20.286;2023-05-07T13:39:28;2.63;;;2.22;;
40611;SDS011;26317;44.894;20.286;2023-05-07T13:41:59;2.45;;;2.25;;
40611;SDS011;26317;44.894;20.286;2023-05-07T13:47:02;3.50;;;2.50;;
40611;SDS011;26317;44.894;20.286;2023-05-07T13:49:35;4.75;;;2.80;;
40611;SDS011;26317;44.894;20.286;2023-05-07T13:52:05;3.80;;;3.00;;
40611;SDS011;26317;44.894;20.286;2023-05-07T13:54:35;10.55;;;8.82;;
40611;SDS011;26317;44.894;20.286;2023-05-07T13:57:06;5.85;;;4.05;;
40611;SDS011;26317;44.894;20.286;2023-05-07T13:59:39;4.50;;;3.13;;
40611;SDS011;26317;44.894;20.286;2023-05-07T14:02:10;4.03;;;2.42;;
40611;SDS011;26317;44.894;20.286;2023-05-07T14:04:42;3.90;;;2.22;;
40611;SDS011;26317;44.894;20.286;2023-05-07T14:07:13;2.30;;;2.10;;
40611;SDS011;26317;44.894;20.286;2023-05-07T14:09:43;8.48;;;4.05;;
40611;SDS011;26317;44.894;20.286;2023-05-07T14:12:14;6.40;;;3.20;;
40611;SDS011;26317;44.894;20.286;2023-05-07T14:14:48;6.28;;;2.53;;
40611;SDS011;26317;44.894;20.286;2023-05-07T14:17:21;5.47;;;2.75;;
40611;SDS011;26317;44.894;20.286;2023-05-07T14:19:54;6.90;;;2.38;;
40611;SDS011;26317;44.894;20.286;2023-05-07T14:24:56;3.85;;;2.75;;
40611;SDS011;26317;44.894;20.286;2023-05-07T14:27:34;2.95;;;2.05;;
40611;SDS011;26317;44.894;20.286;2023-05-07T14:30:07;4.18;;;2.22;;
40611;SDS011;26317;44.894;20.286;2023-05-07T14:32:38;5.88;;;2.50;;
40611;SDS011;26317;44.894;20.286;2023-05-07T14:35:09;3.22;;;2.22;;
40611;SDS011;26317;44.894;20.286;2023-05-07T14:37:40;5.28;;;2.20;;
40611;SDS011;26317;44.894;20.286;2023-05-07T14:40:12;4.68;;;2.20;;
40611;SDS011;26317;44.894;20.286;2023-05-07T14:42:42;2.38;;;2.15;;
40611;SDS011;26317;44.894;20.286;2023-05-07T14:45:15;2.92;;;2.22;;
40611;SDS011;26317;44.894;20.286;2023-05-07T14:47:46;5.93;;;2.30;;
40611;SDS011;26317;44.894;20.286;2023-05-07T14:50:16;4.13;;;2.25;;
40611;SDS011;26317;44.894;20.286;2023-05-07T14:52:46;8.02;;;2.55;;
40611;SDS011;26317;44.894;20.286;2023-05-07T14:55:17;2.28;;;2.00;;
40611;SDS011;26317;44.894;20.286;2023-05-07T15:00:20;6.38;;;3.03;;
40611;SDS011;26317;44.894;20.286;2023-05-07T15:02:50;4.25;;;2.42;;
40611;SDS011;26317;44.894;20.286;2023-05-07T15:07:51;5.23;;;2.70;;
40611;SDS011;26317;44.894;20.286;2023-05-07T15:10:23;2.40;;;2.20;;
40611;SDS011;26317;44.894;20.286;2023-05-07T15:15:27;3.35;;;2.40;;
40611;SDS011;26317;44.894;20.286;2023-05-07T15:17:58;2.38;;;2.00;;
40611;SDS011;26317;44.894;20.286;2023-05-07T15:20:29;3.00;;;1.92;;
40611;SDS011;26317;44.894;20.286;2023-05-07T15:22:59;5.20;;;2.30;;
40611;SDS011;26317;44.894;20.286;2023-05-07T15:25:31;4.90;;;2.55;;
40611;SDS011;26317;44.894;20.286;2023-05-07T15:28:03;7.50;;;2.50;;
40611;SDS011;26317;44.894;20.286;2023-05-07T15:30:36;5.10;;;2.53;;
40611;SDS011;26317;44.894;20.286;2023-05-07T15:33:06;7.47;;;3.00;;
40611;SDS011;26317;44.894;20.286;2023-05-07T15:35:37;3.72;;;2.58;;
40611;SDS011;26317;44.894;20.286;2023-05-07T15:38:07;6.65;;;2.80;;
40611;SDS011;26317;44.894;20.286;2023-05-07T15:40:37;3.50;;;2.38;;
40611;SDS011;26317;44.894;20.286;2023-05-07T15:43:11;4.20;;;2.30;;
40611;SDS011;26317;44.894;20.286;2023-05-07T15:45:43;16.17;;;7.35;;
40611;SDS011;26317;44.894;20.286;2023-05-07T15:48:14;3.60;;;3.08;;
40611;SDS011;26317;44.894;20.286;2023-05-07T15:50:44;12.90;;;6.32;;
40611;SDS011;26317;44.894;20.286;2023-05-07T15:55:44;3.00;;;2.67;;
40611;SDS011;26317;44.894;20.286;2023-05-07T15:58:17;5.07;;;2.60;;
40611;SDS011;26317;44.894;20.286;2023-05-07T16:00:50;3.53;;;2.53;;
40611;SDS011;26317;44.894;20.286;2023-05-07T16:03:22;10.68;;;3.58;;
40611;SDS011;26317;44.894;20.286;2023-05-07T16:08:23;18.05;;;3.90;;